Startpagina
METAR-TAF:

METAR-TAF

Vliegvelden :

Damascus, Syrië

Luchthaven Damascus

breedte: 33-25N, lengte: 036-31E, hoogte: 608 m

Actueel weer

Dit bericht is 31 minuten geleden gemaakt, om 04:00 UTC
Weinig wind
Temperatuur 2°C
Vochtigheid 93%
Druk 1017 hPa
Zicht: 0500 m
mist

METAR: OSDI 140400Z 00000KT 0500 R23/0500 FG 02/01 Q1017

Tijdstip: 06:31 (04:31 UTC)

Verwachting

Dit bericht is 6 uur en het 31 minuten geleden gemaakt, om 22:00 UTC
Verwachting geldig van 14 om 00 UTC tot 15 om 06 UTC
Wind 3 kt uit variabele richting
Zicht 10 km of meer
geen wolken onder 1500 m en geen cumulonimbus
Kans 30% :
Tijdelijke
van 14 om 03 UTC tot 14 om 05 UTC
Zicht: 0500 m
mist
Wijzigt naar
van 14 om 09 UTC tot 14 om 11 UTC
Wind 10 kt uit het zuidwesten
Zicht 10 km of meer
Verspreide wolken op 3000 ft
Gebroken wolken op 10000 ft

TAF: OSDI 132200Z 1400/1506 VRB03KT CAVOK PROB30 TEMPO 1403/1405 0500 FG BECMG 1409/1411 23010KT 9999 SCT030 BKN100

Waarnemingen en weersverwachtingen van meer dan 4000 vliegvelden (METAR en TAF).

De beschikbare stations zijn de gele en rode punten op de kaart.

Ga met uw muis naar het station om de naam te zien.

Klik dan om waarnemingen en weersverwachtingen te zien.

kaart wijzigen: klik op de groene knoppen met een zwart kruis om in te zoomen, op de groene knop met een streepje om uit te zoomen of op de groene pijlen voor aangrenzende kaarten.


METAR-TAF: